sensor_id;sensor_type;location;lat;lon;timestamp;temperature;humidity
16076;DHT22;8142;48.242;11.644;2023-03-31T00:01:30;9.60;99.90
16076;DHT22;8142;48.242;11.644;2023-03-31T00:04:01;9.60;99.90
16076;DHT22;8142;48.242;11.644;2023-03-31T00:06:32;9.60;99.90
16076;DHT22;8142;48.242;11.644;2023-03-31T00:09:04;9.70;99.90
16076;DHT22;8142;48.242;11.644;2023-03-31T00:11:31;9.80;99.90
16076;DHT22;8142;48.242;11.644;2023-03-31T00:13:57;9.60;99.90
16076;DHT22;8142;48.242;11.644;2023-03-31T00:16:23;9.90;99.90
16076;DHT22;8142;48.242;11.644;2023-03-31T00:18:50;10.10;99.90
16076;DHT22;8142;48.242;11.644;2023-03-31T00:21:18;10.10;99.90
16076;DHT22;8142;48.242;11.644;2023-03-31T00:23:58;10.10;99.90
16076;DHT22;8142;48.242;11.644;2023-03-31T00:26:24;10.00;99.90
16076;DHT22;8142;48.242;11.644;2023-03-31T00:28:51;10.00;99.90
16076;DHT22;8142;48.242;11.644;2023-03-31T00:31:18;10.00;99.90
16076;DHT22;8142;48.242;11.644;2023-03-31T00:33:44;9.90;99.90
16076;DHT22;8142;48.242;11.644;2023-03-31T00:36:10;9.90;99.90
16076;DHT22;8142;48.242;11.644;2023-03-31T00:38:36;9.80;99.90
16076;DHT22;8142;48.242;11.644;2023-03-31T00:41:02;9.90;99.90
16076;DHT22;8142;48.242;11.644;2023-03-31T00:43:33;9.80;99.90
16076;DHT22;8142;48.242;11.644;2023-03-31T00:46:22;10.10;99.90
16076;DHT22;8142;48.242;11.644;2023-03-31T00:48:56;10.20;99.90
16076;DHT22;8142;48.242;11.644;2023-03-31T00:51:26;10.20;99.90
16076;DHT22;8142;48.242;11.644;2023-03-31T00:53:57;10.20;99.90
16076;DHT22;8142;48.242;11.644;2023-03-31T00:56:29;10.20;99.90
16076;DHT22;8142;48.242;11.644;2023-03-31T00:59:01;10.10;99.90
16076;DHT22;8142;48.242;11.644;2023-03-31T01:01:28;10.10;99.90
16076;DHT22;8142;48.242;11.644;2023-03-31T01:03:55;10.10;99.90
16076;DHT22;8142;48.242;11.644;2023-03-31T01:06:22;10.00;99.90
16076;DHT22;8142;48.242;11.644;2023-03-31T01:08:50;9.90;99.90
16076;DHT22;8142;48.242;11.644;2023-03-31T01:11:19;9.90;99.90
16076;DHT22;8142;48.242;11.644;2023-03-31T01:13:47;9.80;99.90
16076;DHT22;8142;48.242;11.644;2023-03-31T01:16:16;10.10;99.90
16076;DHT22;8142;48.242;11.644;2023-03-31T01:18:43;10.20;99.90
16076;DHT22;8142;48.242;11.644;2023-03-31T01:21:35;10.20;99.90
16076;DHT22;8142;48.242;11.644;2023-03-31T01:27:01;10.10;99.90
16076;DHT22;8142;48.242;11.644;2023-03-31T01:45:58;9.90;99.90
16076;DHT22;8142;48.242;11.644;2023-03-31T01:48:46;10.00;99.90
16076;DHT22;8142;48.242;11.644;2023-03-31T01:51:59;10.10;99.90
16076;DHT22;8142;48.242;11.644;2023-03-31T01:57:32;10.00;99.90
16076;DHT22;8142;48.242;11.644;2023-03-31T02:00:08;9.90;99.90
16076;DHT22;8142;48.242;11.644;2023-03-31T02:02:48;9.90;99.90
16076;DHT22;8142;48.242;11.644;2023-03-31T02:05:19;9.70;99.90
16076;DHT22;8142;48.242;11.644;2023-03-31T02:07:49;9.60;99.90
16076;DHT22;8142;48.242;11.644;2023-03-31T02:10:19;9.70;99.90
16076;DHT22;8142;48.242;11.644;2023-03-31T02:12:46;9.70;99.90
16076;DHT22;8142;48.242;11.644;2023-03-31T02:15:18;9.80;99.90
16076;DHT22;8142;48.242;11.644;2023-03-31T02:17:48;10.00;99.90
16076;DHT22;8142;48.242;11.644;2023-03-31T02:20:17;10.00;99.90
16076;DHT22;8142;48.242;11.644;2023-03-31T02:22:47;10.00;99.90
16076;DHT22;8142;48.242;11.644;2023-03-31T02:25:16;10.10;99.90
16076;DHT22;8142;48.242;11.644;2023-03-31T02:27:48;10.00;99.90
16076;DHT22;8142;48.242;11.644;2023-03-31T02:30:16;10.00;99.90
16076;DHT22;8142;48.242;11.644;2023-03-31T02:32:43;10.00;99.90
16076;DHT22;8142;48.242;11.644;2023-03-31T02:35:14;10.00;99.90
16076;DHT22;8142;48.242;11.644;2023-03-31T02:37:42;9.90;99.90
16076;DHT22;8142;48.242;11.644;2023-03-31T02:40:13;9.90;99.90
16076;DHT22;8142;48.242;11.644;2023-03-31T02:42:41;9.90;99.90
16076;DHT22;8142;48.242;11.644;2023-03-31T02:48:02;10.30;99.90
16076;DHT22;8142;48.242;11.644;2023-03-31T02:50:33;10.30;99.90
16076;DHT22;8142;48.242;11.644;2023-03-31T03:17:37;9.60;99.90
16076;DHT22;8142;48.242;11.644;2023-03-31T03:20:05;9.60;99.90
16076;DHT22;8142;48.242;11.644;2023-03-31T03:22:33;9.60;99.90
16076;DHT22;8142;48.242;11.644;2023-03-31T03:24:59;9.60;99.90
16076;DHT22;8142;48.242;11.644;2023-03-31T03:27:25;9.60;99.90
16076;DHT22;8142;48.242;11.644;2023-03-31T03:29:51;9.50;99.90
16076;DHT22;8142;48.242;11.644;2023-03-31T03:32:16;9.50;99.90
16076;DHT22;8142;48.242;11.644;2023-03-31T03:34:42;9.40;99.90
16076;DHT22;8142;48.242;11.644;2023-03-31T03:37:08;9.50;99.90
16076;DHT22;8142;48.242;11.644;2023-03-31T03:39:34;9.50;99.90
16076;DHT22;8142;48.242;11.644;2023-03-31T03:42:00;9.40;99.90
16076;DHT22;8142;48.242;11.644;2023-03-31T03:44:26;9.40;99.90
16076;DHT22;8142;48.242;11.644;2023-03-31T03:46:52;9.40;99.90
16076;DHT22;8142;48.242;11.644;2023-03-31T03:49:18;9.40;99.90
16076;DHT22;8142;48.242;11.644;2023-03-31T03:51:44;9.30;99.90
16076;DHT22;8142;48.242;11.644;2023-03-31T03:54:11;9.30;99.90
16076;DHT22;8142;48.242;11.644;2023-03-31T03:56:37;9.30;99.90
16076;DHT22;8142;48.242;11.644;2023-03-31T03:59:02;9.20;99.90
16076;DHT22;8142;48.242;11.644;2023-03-31T04:01:28;9.30;99.90
16076;DHT22;8142;48.242;11.644;2023-03-31T04:03:54;9.20;99.90
16076;DHT22;8142;48.242;11.644;2023-03-31T04:06:20;9.10;99.90
16076;DHT22;8142;48.242;11.644;2023-03-31T04:08:46;9.10;99.90
16076;DHT22;8142;48.242;11.644;2023-03-31T04:11:14;9.10;99.90
16076;DHT22;8142;48.242;11.644;2023-03-31T04:13:42;9.00;99.90
16076;DHT22;8142;48.242;11.644;2023-03-31T04:16:08;9.40;99.90
16076;DHT22;8142;48.242;11.644;2023-03-31T04:18:34;9.50;99.90
16076;DHT22;8142;48.242;11.644;2023-03-31T04:21:02;9.50;99.90
16076;DHT22;8142;48.242;11.644;2023-03-31T04:23:35;9.60;99.90
16076;DHT22;8142;48.242;11.644;2023-03-31T04:26:12;9.60;99.90
16076;DHT22;8142;48.242;11.644;2023-03-31T04:28:38;9.60;99.90
16076;DHT22;8142;48.242;11.644;2023-03-31T04:31:08;9.60;99.90
16076;DHT22;8142;48.242;11.644;2023-03-31T04:33:34;9.60;99.90
16076;DHT22;8142;48.242;11.644;2023-03-31T04:36:07;9.60;99.90
16076;DHT22;8142;48.242;11.644;2023-03-31T04:38:43;9.60;99.90
16076;DHT22;8142;48.242;11.644;2023-03-31T04:41:14;9.60;99.90
16076;DHT22;8142;48.242;11.644;2023-03-31T04:43:40;9.70;99.90
16076;DHT22;8142;48.242;11.644;2023-03-31T04:46:06;9.70;99.90
16076;DHT22;8142;48.242;11.644;2023-03-31T04:48:32;9.90;99.90
16076;DHT22;8142;48.242;11.644;2023-03-31T04:50:58;9.90;99.90
16076;DHT22;8142;48.242;11.644;2023-03-31T04:53:24;9.90;99.90
16076;DHT22;8142;48.242;11.644;2023-03-31T04:55:50;9.90;99.90
16076;DHT22;8142;48.242;11.644;2023-03-31T04:58:17;9.90;99.90
16076;DHT22;8142;48.242;11.644;2023-03-31T05:00:43;9.80;99.90
16076;DHT22;8142;48.242;11.644;2023-03-31T05:03:09;9.80;99.90
16076;DHT22;8142;48.242;11.644;2023-03-31T05:05:35;9.80;99.90
16076;DHT22;8142;48.242;11.644;2023-03-31T05:08:02;9.80;99.90
16076;DHT22;8142;48.242;11.644;2023-03-31T05:10:29;9.80;99.90
16076;DHT22;8142;48.242;11.644;2023-03-31T05:12:55;9.70;99.90
16076;DHT22;8142;48.242;11.644;2023-03-31T05:15:21;9.70;99.90
16076;DHT22;8142;48.242;11.644;2023-03-31T05:17:49;9.60;99.90
16076;DHT22;8142;48.242;11.644;2023-03-31T05:20:15;9.60;99.90
16076;DHT22;8142;48.242;11.644;2023-03-31T05:22:41;9.60;99.90
16076;DHT22;8142;48.242;11.644;2023-03-31T05:25:09;9.50;99.90
16076;DHT22;8142;48.242;11.644;2023-03-31T05:27:36;9.50;99.90
16076;DHT22;8142;48.242;11.644;2023-03-31T05:30:03;9.50;99.90
16076;DHT22;8142;48.242;11.644;2023-03-31T05:32:29;9.50;99.90
16076;DHT22;8142;48.242;11.644;2023-03-31T05:34:55;9.40;99.90
16076;DHT22;8142;48.242;11.644;2023-03-31T05:37:24;9.40;99.90
16076;DHT22;8142;48.242;11.644;2023-03-31T05:39:50;9.40;99.90
16076;DHT22;8142;48.242;11.644;2023-03-31T05:42:16;9.40;99.90
16076;DHT22;8142;48.242;11.644;2023-03-31T05:44:43;9.40;99.90
16076;DHT22;8142;48.242;11.644;2023-03-31T05:47:08;9.40;99.90
16076;DHT22;8142;48.242;11.644;2023-03-31T05:49:34;9.40;99.90
16076;DHT22;8142;48.242;11.644;2023-03-31T05:52:00;9.30;99.90
16076;DHT22;8142;48.242;11.644;2023-03-31T05:54:26;9.20;99.90
16076;DHT22;8142;48.242;11.644;2023-03-31T05:56:52;9.10;99.90
16076;DHT22;8142;48.242;11.644;2023-03-31T05:59:18;9.00;99.90
16076;DHT22;8142;48.242;11.644;2023-03-31T06:01:44;8.90;99.90
16076;DHT22;8142;48.242;11.644;2023-03-31T06:04:10;8.70;99.90
16076;DHT22;8142;48.242;11.644;2023-03-31T06:06:35;8.70;99.90
16076;DHT22;8142;48.242;11.644;2023-03-31T06:09:03;8.70;99.90
16076;DHT22;8142;48.242;11.644;2023-03-31T06:11:30;8.60;99.90
16076;DHT22;8142;48.242;11.644;2023-03-31T06:13:56;8.50;99.90
16076;DHT22;8142;48.242;11.644;2023-03-31T06:16:22;8.50;99.90
16076;DHT22;8142;48.242;11.644;2023-03-31T06:18:48;8.50;99.90
16076;DHT22;8142;48.242;11.644;2023-03-31T06:21:16;8.50;99.90
16076;DHT22;8142;48.242;11.644;2023-03-31T06:23:43;8.50;99.90
16076;DHT22;8142;48.242;11.644;2023-03-31T06:26:20;8.40;99.90
16076;DHT22;8142;48.242;11.644;2023-03-31T06:28:47;8.50;99.90
16076;DHT22;8142;48.242;11.644;2023-03-31T06:31:15;8.60;99.90
16076;DHT22;8142;48.242;11.644;2023-03-31T06:33:42;8.60;99.90
16076;DHT22;8142;48.242;11.644;2023-03-31T06:36:10;8.70;99.90
16076;DHT22;8142;48.242;11.644;2023-03-31T06:38:37;8.80;99.90
16076;DHT22;8142;48.242;11.644;2023-03-31T06:41:03;8.90;99.90
16076;DHT22;8142;48.242;11.644;2023-03-31T06:43:30;9.00;99.90
16076;DHT22;8142;48.242;11.644;2023-03-31T06:45:55;9.00;99.90
16076;DHT22;8142;48.242;11.644;2023-03-31T06:48:22;9.00;99.90
16076;DHT22;8142;48.242;11.644;2023-03-31T06:50:48;9.10;99.90
16076;DHT22;8142;48.242;11.644;2023-03-31T06:53:14;9.20;99.90
16076;DHT22;8142;48.242;11.644;2023-03-31T06:55:40;9.30;99.90
16076;DHT22;8142;48.242;11.644;2023-03-31T06:58:06;9.30;99.90
16076;DHT22;8142;48.242;11.644;2023-03-31T07:00:32;9.40;99.90
16076;DHT22;8142;48.242;11.644;2023-03-31T07:02:58;9.40;99.90
16076;DHT22;8142;48.242;11.644;2023-03-31T07:05:24;9.40;99.90
16076;DHT22;8142;48.242;11.644;2023-03-31T07:07:54;9.50;99.90
16076;DHT22;8142;48.242;11.644;2023-03-31T07:10:21;9.50;99.90
16076;DHT22;8142;48.242;11.644;2023-03-31T07:12:48;9.50;99.90
16076;DHT22;8142;48.242;11.644;2023-03-31T07:15:14;9.50;99.90
16076;DHT22;8142;48.242;11.644;2023-03-31T07:17:40;9.50;99.90
16076;DHT22;8142;48.242;11.644;2023-03-31T07:20:14;9.50;99.90
16076;DHT22;8142;48.242;11.644;2023-03-31T07:22:41;9.60;99.90
16076;DHT22;8142;48.242;11.644;2023-03-31T07:25:09;9.60;99.90
16076;DHT22;8142;48.242;11.644;2023-03-31T07:27:35;9.60;99.90
16076;DHT22;8142;48.242;11.644;2023-03-31T07:30:03;9.60;99.90
16076;DHT22;8142;48.242;11.644;2023-03-31T07:32:29;9.60;99.90
16076;DHT22;8142;48.242;11.644;2023-03-31T07:34:55;9.60;99.90
16076;DHT22;8142;48.242;11.644;2023-03-31T07:37:21;9.60;99.90
16076;DHT22;8142;48.242;11.644;2023-03-31T07:39:47;9.60;99.90
16076;DHT22;8142;48.242;11.644;2023-03-31T07:42:13;9.60;99.90
16076;DHT22;8142;48.242;11.644;2023-03-31T07:44:39;9.60;99.90
16076;DHT22;8142;48.242;11.644;2023-03-31T07:47:05;9.60;99.90
16076;DHT22;8142;48.242;11.644;2023-03-31T07:49:32;9.60;99.90
16076;DHT22;8142;48.242;11.644;2023-03-31T07:51:58;9.50;99.90
16076;DHT22;8142;48.242;11.644;2023-03-31T07:54:25;9.60;99.90
16076;DHT22;8142;48.242;11.644;2023-03-31T07:56:51;9.60;99.90
16076;DHT22;8142;48.242;11.644;2023-03-31T07:59:17;9.60;99.90
16076;DHT22;8142;48.242;11.644;2023-03-31T08:01:43;9.70;99.90
16076;DHT22;8142;48.242;11.644;2023-03-31T08:04:10;9.70;99.90
16076;DHT22;8142;48.242;11.644;2023-03-31T08:06:36;9.70;99.90
16076;DHT22;8142;48.242;11.644;2023-03-31T08:09:04;9.70;99.90
16076;DHT22;8142;48.242;11.644;2023-03-31T08:11:31;9.70;99.90
16076;DHT22;8142;48.242;11.644;2023-03-31T08:13:57;9.80;99.90
16076;DHT22;8142;48.242;11.644;2023-03-31T08:16:23;9.80;99.90
16076;DHT22;8142;48.242;11.644;2023-03-31T08:18:49;9.90;99.90
16076;DHT22;8142;48.242;11.644;2023-03-31T08:21:15;9.90;99.90
16076;DHT22;8142;48.242;11.644;2023-03-31T08:23:41;9.90;99.90
16076;DHT22;8142;48.242;11.644;2023-03-31T08:26:13;9.90;99.90
16076;DHT22;8142;48.242;11.644;2023-03-31T08:28:39;10.00;99.90
16076;DHT22;8142;48.242;11.644;2023-03-31T08:31:06;10.00;99.90
16076;DHT22;8142;48.242;11.644;2023-03-31T08:33:32;10.00;99.90
16076;DHT22;8142;48.242;11.644;2023-03-31T08:36:03;10.00;99.90
16076;DHT22;8142;48.242;11.644;2023-03-31T08:38:30;10.10;99.90
16076;DHT22;8142;48.242;11.644;2023-03-31T08:41:01;10.10;99.90
16076;DHT22;8142;48.242;11.644;2023-03-31T08:43:32;10.10;99.90
16076;DHT22;8142;48.242;11.644;2023-03-31T08:46:00;10.20;99.90
16076;DHT22;8142;48.242;11.644;2023-03-31T08:48:36;10.30;99.90
16076;DHT22;8142;48.242;11.644;2023-03-31T08:51:26;10.30;99.90
16076;DHT22;8142;48.242;11.644;2023-03-31T08:56:28;10.30;99.90
16076;DHT22;8142;48.242;11.644;2023-03-31T08:58:54;10.30;99.90
16076;DHT22;8142;48.242;11.644;2023-03-31T09:01:49;10.30;99.90
16076;DHT22;8142;48.242;11.644;2023-03-31T09:15:47;10.50;99.90
16076;DHT22;8142;48.242;11.644;2023-03-31T09:18:30;10.60;99.90
16076;DHT22;8142;48.242;11.644;2023-03-31T09:24:04;10.90;99.90
16076;DHT22;8142;48.242;11.644;2023-03-31T09:26:42;11.00;99.90
16076;DHT22;8142;48.242;11.644;2023-03-31T09:29:20;11.10;99.90
16076;DHT22;8142;48.242;11.644;2023-03-31T09:31:49;11.10;99.90
16076;DHT22;8142;48.242;11.644;2023-03-31T09:34:23;11.20;99.90
16076;DHT22;8142;48.242;11.644;2023-03-31T09:36:49;11.30;99.90
16076;DHT22;8142;48.242;11.644;2023-03-31T09:39:15;11.40;99.90
16076;DHT22;8142;48.242;11.644;2023-03-31T09:41:48;11.50;99.90
16076;DHT22;8142;48.242;11.644;2023-03-31T09:46:52;11.70;99.90
16076;DHT22;8142;48.242;11.644;2023-03-31T09:49:24;11.90;99.90
16076;DHT22;8142;48.242;11.644;2023-03-31T09:52:05;11.90;99.90
16076;DHT22;8142;48.242;11.644;2023-03-31T09:54:42;12.00;99.90
16076;DHT22;8142;48.242;11.644;2023-03-31T09:57:25;12.10;99.90
16076;DHT22;8142;48.242;11.644;2023-03-31T09:59:53;12.20;99.90
16076;DHT22;8142;48.242;11.644;2023-03-31T10:02:35;12.20;99.90
16076;DHT22;8142;48.242;11.644;2023-03-31T10:05:06;12.30;99.90
16076;DHT22;8142;48.242;11.644;2023-03-31T10:07:42;12.40;99.90
16076;DHT22;8142;48.242;11.644;2023-03-31T10:10:10;12.40;99.90
16076;DHT22;8142;48.242;11.644;2023-03-31T10:12:50;12.50;99.90
16076;DHT22;8142;48.242;11.644;2023-03-31T10:15:21;12.50;99.90
16076;DHT22;8142;48.242;11.644;2023-03-31T10:17:47;12.40;99.90
16076;DHT22;8142;48.242;11.644;2023-03-31T10:20:36;12.50;99.90
16076;DHT22;8142;48.242;11.644;2023-03-31T10:23:17;12.40;99.90
16076;DHT22;8142;48.242;11.644;2023-03-31T10:25:45;12.50;99.90
16076;DHT22;8142;48.242;11.644;2023-03-31T10:28:16;12.50;99.90
16076;DHT22;8142;48.242;11.644;2023-03-31T10:30:51;12.50;99.90
16076;DHT22;8142;48.242;11.644;2023-03-31T10:33:23;12.50;99.90
16076;DHT22;8142;48.242;11.644;2023-03-31T10:36:02;12.60;99.90
16076;DHT22;8142;48.242;11.644;2023-03-31T10:38:41;12.70;99.90
16076;DHT22;8142;48.242;11.644;2023-03-31T10:41:10;12.70;99.90
16076;DHT22;8142;48.242;11.644;2023-03-31T10:43:50;12.70;99.90
16076;DHT22;8142;48.242;11.644;2023-03-31T10:46:17;12.80;99.90
16076;DHT22;8142;48.242;11.644;2023-03-31T10:48:43;12.80;99.90
16076;DHT22;8142;48.242;11.644;2023-03-31T10:51:18;12.80;99.90
16076;DHT22;8142;48.242;11.644;2023-03-31T10:56:23;12.90;99.90
16076;DHT22;8142;48.242;11.644;2023-03-31T11:05:01;13.00;99.90
16076;DHT22;8142;48.242;11.644;2023-03-31T11:23:40;13.10;99.90
16076;DHT22;8142;48.242;11.644;2023-03-31T11:29:18;13.10;99.90
16076;DHT22;8142;48.242;11.644;2023-03-31T11:34:44;12.90;99.90
16076;DHT22;8142;48.242;11.644;2023-03-31T11:40:21;12.30;99.90
16076;DHT22;8142;48.242;11.644;2023-03-31T11:42:56;12.10;99.90
16076;DHT22;8142;48.242;11.644;2023-03-31T11:45:37;12.00;99.90
16076;DHT22;8142;48.242;11.644;2023-03-31T11:48:13;11.90;99.90
16076;DHT22;8142;48.242;11.644;2023-03-31T11:50:43;11.90;99.90
16076;DHT22;8142;48.242;11.644;2023-03-31T11:53:19;11.90;99.90
16076;DHT22;8142;48.242;11.644;2023-03-31T11:55:47;11.90;99.90
16076;DHT22;8142;48.242;11.644;2023-03-31T11:58:20;11.90;99.90
16076;DHT22;8142;48.242;11.644;2023-03-31T12:00:52;11.90;99.90
16076;DHT22;8142;48.242;11.644;2023-03-31T12:06:28;12.00;99.90
16076;DHT22;8142;48.242;11.644;2023-03-31T12:11:47;12.10;99.90
16076;DHT22;8142;48.242;11.644;2023-03-31T12:14:36;12.10;99.90
16076;DHT22;8142;48.242;11.644;2023-03-31T12:17:16;12.20;99.90
16076;DHT22;8142;48.242;11.644;2023-03-31T12:19:51;12.20;99.90
16076;DHT22;8142;48.242;11.644;2023-03-31T12:22:34;12.10;99.90
16076;DHT22;8142;48.242;11.644;2023-03-31T12:25:03;12.10;99.90
16076;DHT22;8142;48.242;11.644;2023-03-31T12:27:36;12.20;99.90
16076;DHT22;8142;48.242;11.644;2023-03-31T12:33:13;12.30;99.90
16076;DHT22;8142;48.242;11.644;2023-03-31T12:41:02;12.50;99.90
16076;DHT22;8142;48.242;11.644;2023-03-31T12:49:23;12.60;99.90
16076;DHT22;8142;48.242;11.644;2023-03-31T12:57:30;12.70;99.90
16076;DHT22;8142;48.242;11.644;2023-03-31T13:00:19;12.80;99.90
16076;DHT22;8142;48.242;11.644;2023-03-31T13:02:46;12.90;99.90
16076;DHT22;8142;48.242;11.644;2023-03-31T13:08:09;13.00;99.90
16076;DHT22;8142;48.242;11.644;2023-03-31T13:10:55;13.10;99.90
16076;DHT22;8142;48.242;11.644;2023-03-31T13:13:22;13.10;99.90
16076;DHT22;8142;48.242;11.644;2023-03-31T13:15:56;13.20;99.90
16076;DHT22;8142;48.242;11.644;2023-03-31T13:18:24;13.20;99.90
16076;DHT22;8142;48.242;11.644;2023-03-31T13:21:04;13.30;99.90
16076;DHT22;8142;48.242;11.644;2023-03-31T13:23:34;13.30;99.90
16076;DHT22;8142;48.242;11.644;2023-03-31T13:26:02;13.30;99.90
16076;DHT22;8142;48.242;11.644;2023-03-31T13:28:38;13.20;99.90
16076;DHT22;8142;48.242;11.644;2023-03-31T13:31:12;13.40;99.90
16076;DHT22;8142;48.242;11.644;2023-03-31T13:33:51;13.60;99.90
16076;DHT22;8142;48.242;11.644;2023-03-31T13:36:42;13.70;99.90
16076;DHT22;8142;48.242;11.644;2023-03-31T13:42:43;13.80;99.90
16076;DHT22;8142;48.242;11.644;2023-03-31T13:48:43;13.70;99.90
16076;DHT22;8142;48.242;11.644;2023-03-31T13:59:48;13.50;99.90
16076;DHT22;8142;48.242;11.644;2023-03-31T14:02:41;13.50;99.90
16076;DHT22;8142;48.242;11.644;2023-03-31T14:05:32;13.40;99.90
16076;DHT22;8142;48.242;11.644;2023-03-31T14:08:02;13.40;99.90
16076;DHT22;8142;48.242;11.644;2023-03-31T14:10:37;13.30;99.90
16076;DHT22;8142;48.242;11.644;2023-03-31T14:13:15;13.20;99.90
16076;DHT22;8142;48.242;11.644;2023-03-31T14:15:56;13.20;99.90
16076;DHT22;8142;48.242;11.644;2023-03-31T14:18:32;13.10;99.90
16076;DHT22;8142;48.242;11.644;2023-03-31T14:21:28;13.00;99.90
16076;DHT22;8142;48.242;11.644;2023-03-31T14:35:03;12.80;99.90
16076;DHT22;8142;48.242;11.644;2023-03-31T14:37:30;12.70;99.90
16076;DHT22;8142;48.242;11.644;2023-03-31T14:39:57;12.70;99.90
16076;DHT22;8142;48.242;11.644;2023-03-31T14:42:26;12.70;99.90
16076;DHT22;8142;48.242;11.644;2023-03-31T14:44:55;12.70;99.90
16076;DHT22;8142;48.242;11.644;2023-03-31T14:47:24;12.60;99.90
16076;DHT22;8142;48.242;11.644;2023-03-31T14:50:12;12.60;99.90
16076;DHT22;8142;48.242;11.644;2023-03-31T14:52:39;12.50;99.90
16076;DHT22;8142;48.242;11.644;2023-03-31T14:55:05;12.60;99.90
16076;DHT22;8142;48.242;11.644;2023-03-31T14:57:35;12.40;99.90
16076;DHT22;8142;48.242;11.644;2023-03-31T15:00:04;12.30;99.90
16076;DHT22;8142;48.242;11.644;2023-03-31T15:02:40;12.20;99.90
16076;DHT22;8142;48.242;11.644;2023-03-31T15:05:09;12.00;99.90
16076;DHT22;8142;48.242;11.644;2023-03-31T15:07:41;11.80;99.90
16076;DHT22;8142;48.242;11.644;2023-03-31T15:10:07;11.60;99.90
16076;DHT22;8142;48.242;11.644;2023-03-31T15:12:33;11.40;99.90
16076;DHT22;8142;48.242;11.644;2023-03-31T15:15:04;11.20;99.90
16076;DHT22;8142;48.242;11.644;2023-03-31T15:17:38;11.00;99.90
16076;DHT22;8142;48.242;11.644;2023-03-31T15:22:49;11.00;99.90
16076;DHT22;8142;48.242;11.644;2023-03-31T15:25:16;11.00;99.90
16076;DHT22;8142;48.242;11.644;2023-03-31T15:27:47;11.10;99.90
16076;DHT22;8142;48.242;11.644;2023-03-31T15:30:18;11.10;99.90
16076;DHT22;8142;48.242;11.644;2023-03-31T15:32:45;11.10;99.90
16076;DHT22;8142;48.242;11.644;2023-03-31T15:35:20;11.00;99.90
16076;DHT22;8142;48.242;11.644;2023-03-31T15:37:49;11.10;99.90
16076;DHT22;8142;48.242;11.644;2023-03-31T15:40:26;11.10;99.90
16076;DHT22;8142;48.242;11.644;2023-03-31T15:42:56;11.20;99.90
16076;DHT22;8142;48.242;11.644;2023-03-31T15:45:34;11.00;99.90
16076;DHT22;8142;48.242;11.644;2023-03-31T15:48:02;11.00;99.90
16076;DHT22;8142;48.242;11.644;2023-03-31T15:50:29;11.00;99.90
16076;DHT22;8142;48.242;11.644;2023-03-31T15:52:56;10.90;99.90
16076;DHT22;8142;48.242;11.644;2023-03-31T15:57:56;10.80;99.90
16076;DHT22;8142;48.242;11.644;2023-03-31T16:03:22;10.80;99.90
16076;DHT22;8142;48.242;11.644;2023-03-31T16:05:57;10.80;99.90
16076;DHT22;8142;48.242;11.644;2023-03-31T16:08:30;11.00;99.90
16076;DHT22;8142;48.242;11.644;2023-03-31T16:11:07;10.90;99.90
16076;DHT22;8142;48.242;11.644;2023-03-31T16:13:34;11.00;99.90
16076;DHT22;8142;48.242;11.644;2023-03-31T16:16:07;11.10;99.90
16076;DHT22;8142;48.242;11.644;2023-03-31T16:18:45;11.10;99.90
16076;DHT22;8142;48.242;11.644;2023-03-31T16:21:12;11.10;99.90
16076;DHT22;8142;48.242;11.644;2023-03-31T16:23:41;11.10;99.90
16076;DHT22;8142;48.242;11.644;2023-03-31T16:26:09;11.10;99.90
16076;DHT22;8142;48.242;11.644;2023-03-31T16:28:37;11.10;99.90
16076;DHT22;8142;48.242;11.644;2023-03-31T16:31:04;11.20;99.90
16076;DHT22;8142;48.242;11.644;2023-03-31T16:33:51;11.10;99.90
16076;DHT22;8142;48.242;11.644;2023-03-31T16:36:17;11.20;99.90
16076;DHT22;8142;48.242;11.644;2023-03-31T16:38:43;11.10;99.90
16076;DHT22;8142;48.242;11.644;2023-03-31T16:41:09;11.10;99.90
16076;DHT22;8142;48.242;11.644;2023-03-31T16:43:35;11.00;99.90
16076;DHT22;8142;48.242;11.644;2023-03-31T16:46:02;11.10;99.90
16076;DHT22;8142;48.242;11.644;2023-03-31T16:48:29;11.20;99.90
16076;DHT22;8142;48.242;11.644;2023-03-31T16:50:58;11.10;99.90
16076;DHT22;8142;48.242;11.644;2023-03-31T16:53:29;11.00;99.90
16076;DHT22;8142;48.242;11.644;2023-03-31T16:55:56;11.00;99.90
16076;DHT22;8142;48.242;11.644;2023-03-31T16:58:22;11.00;99.90
16076;DHT22;8142;48.242;11.644;2023-03-31T17:00:49;11.00;99.90
16076;DHT22;8142;48.242;11.644;2023-03-31T17:03:15;11.00;99.90
16076;DHT22;8142;48.242;11.644;2023-03-31T17:05:43;11.10;99.90
16076;DHT22;8142;48.242;11.644;2023-03-31T17:08:10;11.00;99.90
16076;DHT22;8142;48.242;11.644;2023-03-31T17:10:38;10.90;99.90
16076;DHT22;8142;48.242;11.644;2023-03-31T17:13:04;10.80;99.90
16076;DHT22;8142;48.242;11.644;2023-03-31T17:15:30;10.60;99.90
16076;DHT22;8142;48.242;11.644;2023-03-31T17:17:57;10.40;99.90
16076;DHT22;8142;48.242;11.644;2023-03-31T17:20:24;10.20;99.90
16076;DHT22;8142;48.242;11.644;2023-03-31T17:22:50;10.00;99.90
16076;DHT22;8142;48.242;11.644;2023-03-31T17:25:17;9.80;99.90
16076;DHT22;8142;48.242;11.644;2023-03-31T17:27:44;9.80;99.90
16076;DHT22;8142;48.242;11.644;2023-03-31T17:30:10;9.70;99.90
16076;DHT22;8142;48.242;11.644;2023-03-31T17:32:37;9.70;99.90
16076;DHT22;8142;48.242;11.644;2023-03-31T17:35:04;9.60;99.90
16076;DHT22;8142;48.242;11.644;2023-03-31T17:37:32;9.60;99.90
16076;DHT22;8142;48.242;11.644;2023-03-31T17:39:58;9.50;99.90
16076;DHT22;8142;48.242;11.644;2023-03-31T17:42:24;9.50;99.90
16076;DHT22;8142;48.242;11.644;2023-03-31T17:44:51;9.70;99.90
16076;DHT22;8142;48.242;11.644;2023-03-31T17:47:18;10.00;99.90
16076;DHT22;8142;48.242;11.644;2023-03-31T17:49:45;10.20;99.90
16076;DHT22;8142;48.242;11.644;2023-03-31T17:52:12;10.60;99.90
16076;DHT22;8142;48.242;11.644;2023-03-31T17:54:38;10.80;99.90
16076;DHT22;8142;48.242;11.644;2023-03-31T17:57:04;10.70;99.90
16076;DHT22;8142;48.242;11.644;2023-03-31T17:59:30;10.60;99.90
16076;DHT22;8142;48.242;11.644;2023-03-31T18:01:56;10.50;99.90
16076;DHT22;8142;48.242;11.644;2023-03-31T18:04:22;10.30;99.90
16076;DHT22;8142;48.242;11.644;2023-03-31T18:06:48;10.20;99.90
16076;DHT22;8142;48.242;11.644;2023-03-31T18:09:15;10.10;99.90
16076;DHT22;8142;48.242;11.644;2023-03-31T18:11:41;10.00;99.90
16076;DHT22;8142;48.242;11.644;2023-03-31T18:14:07;9.90;99.90
16076;DHT22;8142;48.242;11.644;2023-03-31T18:16:33;9.80;99.90
16076;DHT22;8142;48.242;11.644;2023-03-31T18:19:00;9.70;99.90
16076;DHT22;8142;48.242;11.644;2023-03-31T18:21:26;9.60;99.90
16076;DHT22;8142;48.242;11.644;2023-03-31T18:23:52;9.60;99.90
16076;DHT22;8142;48.242;11.644;2023-03-31T18:26:21;9.60;99.90
16076;DHT22;8142;48.242;11.644;2023-03-31T18:28:48;9.50;99.90
16076;DHT22;8142;48.242;11.644;2023-03-31T18:31:15;9.50;99.90
16076;DHT22;8142;48.242;11.644;2023-03-31T18:33:40;9.40;99.90
16076;DHT22;8142;48.242;11.644;2023-03-31T18:36:08;9.40;99.90
16076;DHT22;8142;48.242;11.644;2023-03-31T18:38:37;9.40;99.90
16076;DHT22;8142;48.242;11.644;2023-03-31T18:41:03;9.40;99.90